sensor_id;sensor_type;location;lat;lon;timestamp;temperature;humidity
3602;DHT22;1815;50.950;6.920;2023-03-23T00:01:30;15.50;99.90
3602;DHT22;1815;50.950;6.920;2023-03-23T00:03:57;15.50;99.90
3602;DHT22;1815;50.950;6.920;2023-03-23T00:06:25;15.50;99.90
3602;DHT22;1815;50.950;6.920;2023-03-23T00:08:52;15.50;99.90
3602;DHT22;1815;50.950;6.920;2023-03-23T00:11:27;15.50;99.90
3602;DHT22;1815;50.950;6.920;2023-03-23T00:13:55;15.50;99.90
3602;DHT22;1815;50.950;6.920;2023-03-23T00:16:24;15.60;99.90
3602;DHT22;1815;50.950;6.920;2023-03-23T00:19:01;15.50;99.90
3602;DHT22;1815;50.950;6.920;2023-03-23T00:21:32;15.50;99.90
3602;DHT22;1815;50.950;6.920;2023-03-23T00:24:14;15.50;99.90
3602;DHT22;1815;50.950;6.920;2023-03-23T00:26:48;15.50;99.90
3602;DHT22;1815;50.950;6.920;2023-03-23T00:29:22;15.60;99.90
3602;DHT22;1815;50.950;6.920;2023-03-23T00:31:51;15.60;99.90
3602;DHT22;1815;50.950;6.920;2023-03-23T00:34:22;15.60;99.90
3602;DHT22;1815;50.950;6.920;2023-03-23T00:36:52;15.60;99.90
3602;DHT22;1815;50.950;6.920;2023-03-23T00:39:19;15.60;99.90
3602;DHT22;1815;50.950;6.920;2023-03-23T00:41:47;15.60;99.90
3602;DHT22;1815;50.950;6.920;2023-03-23T00:44:13;15.60;99.90
3602;DHT22;1815;50.950;6.920;2023-03-23T00:46:49;15.60;99.90
3602;DHT22;1815;50.950;6.920;2023-03-23T00:49:17;15.60;99.90
3602;DHT22;1815;50.950;6.920;2023-03-23T00:51:43;15.60;99.90
3602;DHT22;1815;50.950;6.920;2023-03-23T00:54:09;15.60;99.90
3602;DHT22;1815;50.950;6.920;2023-03-23T00:56:36;15.60;99.90
3602;DHT22;1815;50.950;6.920;2023-03-23T00:59:03;15.60;99.90
3602;DHT22;1815;50.950;6.920;2023-03-23T01:01:29;15.60;99.90
3602;DHT22;1815;50.950;6.920;2023-03-23T01:03:58;15.60;99.90
3602;DHT22;1815;50.950;6.920;2023-03-23T01:06:31;15.60;99.90
3602;DHT22;1815;50.950;6.920;2023-03-23T01:08:58;15.60;99.90
3602;DHT22;1815;50.950;6.920;2023-03-23T01:11:24;15.50;99.90
3602;DHT22;1815;50.950;6.920;2023-03-23T01:13:51;15.50;99.90
3602;DHT22;1815;50.950;6.920;2023-03-23T01:16:20;15.50;99.90
3602;DHT22;1815;50.950;6.920;2023-03-23T01:18:46;15.50;99.90
3602;DHT22;1815;50.950;6.920;2023-03-23T01:21:15;15.50;99.90
3602;DHT22;1815;50.950;6.920;2023-03-23T01:23:42;15.50;99.90
3602;DHT22;1815;50.950;6.920;2023-03-23T01:26:12;15.50;99.90
3602;DHT22;1815;50.950;6.920;2023-03-23T01:28:38;15.50;99.90
3602;DHT22;1815;50.950;6.920;2023-03-23T01:31:07;15.50;99.90
3602;DHT22;1815;50.950;6.920;2023-03-23T01:33:35;15.50;99.90
3602;DHT22;1815;50.950;6.920;2023-03-23T01:36:10;15.50;99.90
3602;DHT22;1815;50.950;6.920;2023-03-23T01:38:36;15.50;99.90
3602;DHT22;1815;50.950;6.920;2023-03-23T01:41:04;15.60;99.90
3602;DHT22;1815;50.950;6.920;2023-03-23T01:43:30;15.50;99.90
3602;DHT22;1815;50.950;6.920;2023-03-23T01:45:56;15.50;99.90
3602;DHT22;1815;50.950;6.920;2023-03-23T01:48:29;15.50;99.90
3602;DHT22;1815;50.950;6.920;2023-03-23T01:51:02;15.50;99.90
3602;DHT22;1815;50.950;6.920;2023-03-23T01:53:37;15.40;99.90
3602;DHT22;1815;50.950;6.920;2023-03-23T01:56:04;15.30;99.90
3602;DHT22;1815;50.950;6.920;2023-03-23T01:58:33;15.20;99.90
3602;DHT22;1815;50.950;6.920;2023-03-23T02:01:06;15.10;99.90
3602;DHT22;1815;50.950;6.920;2023-03-23T02:03:35;15.00;99.90
3602;DHT22;1815;50.950;6.920;2023-03-23T02:06:02;15.00;99.90
3602;DHT22;1815;50.950;6.920;2023-03-23T02:08:51;14.90;99.90
3602;DHT22;1815;50.950;6.920;2023-03-23T02:11:20;14.80;99.90
3602;DHT22;1815;50.950;6.920;2023-03-23T02:13:47;14.70;99.90
3602;DHT22;1815;50.950;6.920;2023-03-23T02:18:53;14.50;99.90
3602;DHT22;1815;50.950;6.920;2023-03-23T02:21:46;14.40;99.90
3602;DHT22;1815;50.950;6.920;2023-03-23T02:24:49;14.40;99.90
3602;DHT22;1815;50.950;6.920;2023-03-23T02:36:00;14.10;99.90
3602;DHT22;1815;50.950;6.920;2023-03-23T02:38:35;14.00;99.90
3602;DHT22;1815;50.950;6.920;2023-03-23T02:41:04;14.00;99.90
3602;DHT22;1815;50.950;6.920;2023-03-23T02:43:41;13.90;99.90
3602;DHT22;1815;50.950;6.920;2023-03-23T02:46:10;13.90;99.90
3602;DHT22;1815;50.950;6.920;2023-03-23T02:48:38;13.90;99.90
3602;DHT22;1815;50.950;6.920;2023-03-23T02:51:07;13.90;99.90
3602;DHT22;1815;50.950;6.920;2023-03-23T02:53:36;13.90;99.90
3602;DHT22;1815;50.950;6.920;2023-03-23T02:56:03;13.90;99.90
3602;DHT22;1815;50.950;6.920;2023-03-23T02:58:30;13.90;99.90
3602;DHT22;1815;50.950;6.920;2023-03-23T03:00:57;13.90;99.90
3602;DHT22;1815;50.950;6.920;2023-03-23T03:03:28;13.90;99.90
3602;DHT22;1815;50.950;6.920;2023-03-23T03:06:03;13.90;99.90
3602;DHT22;1815;50.950;6.920;2023-03-23T03:11:18;13.90;99.90
3602;DHT22;1815;50.950;6.920;2023-03-23T03:14:00;13.90;99.90
3602;DHT22;1815;50.950;6.920;2023-03-23T03:16:48;13.90;99.90
3602;DHT22;1815;50.950;6.920;2023-03-23T03:19:25;13.90;99.90
3602;DHT22;1815;50.950;6.920;2023-03-23T03:21:53;13.90;99.90
3602;DHT22;1815;50.950;6.920;2023-03-23T03:24:28;13.90;99.90
3602;DHT22;1815;50.950;6.920;2023-03-23T03:26:57;13.90;99.90
3602;DHT22;1815;50.950;6.920;2023-03-23T03:29:37;14.00;99.90
3602;DHT22;1815;50.950;6.920;2023-03-23T03:32:10;14.00;99.90
3602;DHT22;1815;50.950;6.920;2023-03-23T03:34:37;14.00;99.90
3602;DHT22;1815;50.950;6.920;2023-03-23T03:37:04;14.00;99.90
3602;DHT22;1815;50.950;6.920;2023-03-23T03:39:35;14.00;99.90
3602;DHT22;1815;50.950;6.920;2023-03-23T03:42:06;14.00;99.90
3602;DHT22;1815;50.950;6.920;2023-03-23T03:44:33;14.00;99.90
3602;DHT22;1815;50.950;6.920;2023-03-23T03:46:59;14.00;99.90
3602;DHT22;1815;50.950;6.920;2023-03-23T03:49:26;14.10;99.90
3602;DHT22;1815;50.950;6.920;2023-03-23T03:51:53;14.10;99.90
3602;DHT22;1815;50.950;6.920;2023-03-23T03:54:23;14.00;99.90
3602;DHT22;1815;50.950;6.920;2023-03-23T03:56:50;14.10;99.90
3602;DHT22;1815;50.950;6.920;2023-03-23T03:59:43;14.10;99.90
3602;DHT22;1815;50.950;6.920;2023-03-23T04:02:09;14.10;99.90
3602;DHT22;1815;50.950;6.920;2023-03-23T04:04:39;14.10;99.90
3602;DHT22;1815;50.950;6.920;2023-03-23T04:07:05;14.10;99.90
3602;DHT22;1815;50.950;6.920;2023-03-23T04:09:31;14.10;99.90
3602;DHT22;1815;50.950;6.920;2023-03-23T04:11:58;14.10;99.90
3602;DHT22;1815;50.950;6.920;2023-03-23T04:14:42;14.10;99.90
3602;DHT22;1815;50.950;6.920;2023-03-23T04:17:08;14.10;99.90
3602;DHT22;1815;50.950;6.920;2023-03-23T04:19:37;14.20;99.90
3602;DHT22;1815;50.950;6.920;2023-03-23T04:22:04;14.10;99.90
3602;DHT22;1815;50.950;6.920;2023-03-23T04:24:33;14.20;99.90
3602;DHT22;1815;50.950;6.920;2023-03-23T04:27:03;14.20;99.90
3602;DHT22;1815;50.950;6.920;2023-03-23T04:29:29;14.20;99.90
3602;DHT22;1815;50.950;6.920;2023-03-23T04:32:14;14.20;99.90
3602;DHT22;1815;50.950;6.920;2023-03-23T04:34:46;14.20;99.90
3602;DHT22;1815;50.950;6.920;2023-03-23T04:37:12;14.20;99.90
3602;DHT22;1815;50.950;6.920;2023-03-23T04:39:39;14.20;99.90
3602;DHT22;1815;50.950;6.920;2023-03-23T04:42:06;14.20;99.90
3602;DHT22;1815;50.950;6.920;2023-03-23T04:44:53;14.20;99.90
3602;DHT22;1815;50.950;6.920;2023-03-23T04:47:34;14.20;99.90
3602;DHT22;1815;50.950;6.920;2023-03-23T04:50:08;14.20;99.90
3602;DHT22;1815;50.950;6.920;2023-03-23T04:52:41;14.20;99.90
3602;DHT22;1815;50.950;6.920;2023-03-23T04:55:13;14.20;99.90
3602;DHT22;1815;50.950;6.920;2023-03-23T04:57:42;14.20;99.90
3602;DHT22;1815;50.950;6.920;2023-03-23T05:00:31;14.30;99.90
3602;DHT22;1815;50.950;6.920;2023-03-23T05:02:58;14.30;99.90
3602;DHT22;1815;50.950;6.920;2023-03-23T05:05:27;14.30;99.90
3602;DHT22;1815;50.950;6.920;2023-03-23T05:07:56;14.30;99.90
3602;DHT22;1815;50.950;6.920;2023-03-23T05:10:24;14.30;99.90
3602;DHT22;1815;50.950;6.920;2023-03-23T05:12:53;14.40;99.90
3602;DHT22;1815;50.950;6.920;2023-03-23T05:15:20;14.40;99.90
3602;DHT22;1815;50.950;6.920;2023-03-23T05:17:46;14.40;99.90
3602;DHT22;1815;50.950;6.920;2023-03-23T05:20:19;14.50;99.90
3602;DHT22;1815;50.950;6.920;2023-03-23T05:22:50;14.50;99.90
3602;DHT22;1815;50.950;6.920;2023-03-23T05:25:21;14.50;99.90
3602;DHT22;1815;50.950;6.920;2023-03-23T05:27:58;14.50;99.90
3602;DHT22;1815;50.950;6.920;2023-03-23T05:30:50;14.50;99.90
3602;DHT22;1815;50.950;6.920;2023-03-23T05:33:18;14.50;99.90
3602;DHT22;1815;50.950;6.920;2023-03-23T05:35:51;14.60;99.90
3602;DHT22;1815;50.950;6.920;2023-03-23T05:38:22;14.60;99.90
3602;DHT22;1815;50.950;6.920;2023-03-23T05:40:49;14.60;99.90
3602;DHT22;1815;50.950;6.920;2023-03-23T05:43:18;14.60;99.90
3602;DHT22;1815;50.950;6.920;2023-03-23T05:46:04;14.70;99.90
3602;DHT22;1815;50.950;6.920;2023-03-23T05:48:30;14.70;99.90
3602;DHT22;1815;50.950;6.920;2023-03-23T05:50:57;14.70;99.90
3602;DHT22;1815;50.950;6.920;2023-03-23T05:53:24;14.70;99.90
3602;DHT22;1815;50.950;6.920;2023-03-23T05:55:50;14.70;99.90
3602;DHT22;1815;50.950;6.920;2023-03-23T05:58:30;14.70;99.90
3602;DHT22;1815;50.950;6.920;2023-03-23T06:00:55;14.80;99.90
3602;DHT22;1815;50.950;6.920;2023-03-23T06:03:26;14.80;99.90
3602;DHT22;1815;50.950;6.920;2023-03-23T06:05:59;14.80;99.90
3602;DHT22;1815;50.950;6.920;2023-03-23T06:08:34;14.80;99.90
3602;DHT22;1815;50.950;6.920;2023-03-23T06:11:03;14.80;99.90
3602;DHT22;1815;50.950;6.920;2023-03-23T06:13:33;14.80;99.90
3602;DHT22;1815;50.950;6.920;2023-03-23T06:16:05;14.80;99.90
3602;DHT22;1815;50.950;6.920;2023-03-23T06:18:49;14.80;99.90
3602;DHT22;1815;50.950;6.920;2023-03-23T06:21:34;14.90;99.90
3602;DHT22;1815;50.950;6.920;2023-03-23T06:24:17;14.90;99.90
3602;DHT22;1815;50.950;6.920;2023-03-23T06:26:43;14.90;99.90
3602;DHT22;1815;50.950;6.920;2023-03-23T06:29:15;15.00;99.90
3602;DHT22;1815;50.950;6.920;2023-03-23T06:31:49;15.00;99.90
3602;DHT22;1815;50.950;6.920;2023-03-23T06:34:18;15.10;99.90
3602;DHT22;1815;50.950;6.920;2023-03-23T06:37:02;15.10;99.90
3602;DHT22;1815;50.950;6.920;2023-03-23T06:39:45;15.20;99.90
3602;DHT22;1815;50.950;6.920;2023-03-23T06:42:34;15.30;99.90
3602;DHT22;1815;50.950;6.920;2023-03-23T06:45:25;15.30;99.90
3602;DHT22;1815;50.950;6.920;2023-03-23T06:48:09;15.40;99.90
3602;DHT22;1815;50.950;6.920;2023-03-23T06:50:36;15.40;99.90
3602;DHT22;1815;50.950;6.920;2023-03-23T06:53:02;15.40;99.90
3602;DHT22;1815;50.950;6.920;2023-03-23T06:55:29;15.50;99.90
3602;DHT22;1815;50.950;6.920;2023-03-23T06:57:54;15.60;99.90
3602;DHT22;1815;50.950;6.920;2023-03-23T07:00:20;15.70;99.90
3602;DHT22;1815;50.950;6.920;2023-03-23T07:02:46;15.80;99.90
3602;DHT22;1815;50.950;6.920;2023-03-23T07:05:12;15.80;99.90
3602;DHT22;1815;50.950;6.920;2023-03-23T07:07:40;15.90;99.90
3602;DHT22;1815;50.950;6.920;2023-03-23T07:10:26;15.90;99.90
3602;DHT22;1815;50.950;6.920;2023-03-23T07:12:52;15.90;99.90
3602;DHT22;1815;50.950;6.920;2023-03-23T07:15:18;15.90;99.90
3602;DHT22;1815;50.950;6.920;2023-03-23T07:17:49;16.00;99.90
3602;DHT22;1815;50.950;6.920;2023-03-23T07:20:21;16.00;99.90
3602;DHT22;1815;50.950;6.920;2023-03-23T07:22:47;16.00;99.90
3602;DHT22;1815;50.950;6.920;2023-03-23T07:25:26;16.00;99.90
3602;DHT22;1815;50.950;6.920;2023-03-23T07:27:54;16.00;99.90
3602;DHT22;1815;50.950;6.920;2023-03-23T07:30:20;16.10;99.90
3602;DHT22;1815;50.950;6.920;2023-03-23T07:32:46;16.10;99.90
3602;DHT22;1815;50.950;6.920;2023-03-23T07:35:12;16.20;99.90
3602;DHT22;1815;50.950;6.920;2023-03-23T07:37:52;16.20;99.90
3602;DHT22;1815;50.950;6.920;2023-03-23T07:40:19;16.30;99.90
3602;DHT22;1815;50.950;6.920;2023-03-23T07:42:57;16.30;99.90
3602;DHT22;1815;50.950;6.920;2023-03-23T07:45:32;16.30;99.90
3602;DHT22;1815;50.950;6.920;2023-03-23T07:47:58;16.30;99.90
3602;DHT22;1815;50.950;6.920;2023-03-23T07:50:24;16.40;99.90
3602;DHT22;1815;50.950;6.920;2023-03-23T07:52:56;16.40;99.90
3602;DHT22;1815;50.950;6.920;2023-03-23T07:55:25;16.50;99.90
3602;DHT22;1815;50.950;6.920;2023-03-23T07:58:04;16.50;99.90
3602;DHT22;1815;50.950;6.920;2023-03-23T08:00:30;16.60;99.90
3602;DHT22;1815;50.950;6.920;2023-03-23T08:03:00;16.60;99.90
3602;DHT22;1815;50.950;6.920;2023-03-23T08:05:42;16.70;99.90
3602;DHT22;1815;50.950;6.920;2023-03-23T08:08:26;16.70;99.90
3602;DHT22;1815;50.950;6.920;2023-03-23T08:11:30;16.80;99.90
3602;DHT22;1815;50.950;6.920;2023-03-23T08:14:22;16.80;99.90
3602;DHT22;1815;50.950;6.920;2023-03-23T08:17:17;16.90;99.90
3602;DHT22;1815;50.950;6.920;2023-03-23T08:19:56;17.00;99.90
3602;DHT22;1815;50.950;6.920;2023-03-23T08:22:55;17.10;99.90
3602;DHT22;1815;50.950;6.920;2023-03-23T08:26:00;17.10;99.90
3602;DHT22;1815;50.950;6.920;2023-03-23T08:28:47;17.20;99.90
3602;DHT22;1815;50.950;6.920;2023-03-23T08:31:15;17.20;99.90
3602;DHT22;1815;50.950;6.920;2023-03-23T08:33:57;17.20;99.90
3602;DHT22;1815;50.950;6.920;2023-03-23T08:36:42;17.30;99.90
3602;DHT22;1815;50.950;6.920;2023-03-23T08:39:23;17.30;99.90
3602;DHT22;1815;50.950;6.920;2023-03-23T08:41:59;17.40;99.90
3602;DHT22;1815;50.950;6.920;2023-03-23T08:44:57;17.50;99.90
3602;DHT22;1815;50.950;6.920;2023-03-23T08:47:42;17.50;99.90
3602;DHT22;1815;50.950;6.920;2023-03-23T08:50:29;17.60;99.90
3602;DHT22;1815;50.950;6.920;2023-03-23T08:53:09;17.60;99.90
3602;DHT22;1815;50.950;6.920;2023-03-23T08:56:09;17.60;99.90
3602;DHT22;1815;50.950;6.920;2023-03-23T08:59:13;17.70;99.90
3602;DHT22;1815;50.950;6.920;2023-03-23T09:01:58;17.70;99.90
3602;DHT22;1815;50.950;6.920;2023-03-23T09:04:42;17.70;99.90
3602;DHT22;1815;50.950;6.920;2023-03-23T09:07:27;17.70;99.90
3602;DHT22;1815;50.950;6.920;2023-03-23T09:09:53;17.80;99.90
3602;DHT22;1815;50.950;6.920;2023-03-23T09:12:19;17.80;99.90
3602;DHT22;1815;50.950;6.920;2023-03-23T09:14:45;17.80;99.90
3602;DHT22;1815;50.950;6.920;2023-03-23T09:17:11;17.80;99.90
3602;DHT22;1815;50.950;6.920;2023-03-23T09:19:37;17.90;99.90
3602;DHT22;1815;50.950;6.920;2023-03-23T09:22:03;17.90;99.90
3602;DHT22;1815;50.950;6.920;2023-03-23T09:24:30;18.00;99.90
3602;DHT22;1815;50.950;6.920;2023-03-23T09:26:56;18.10;99.90
3602;DHT22;1815;50.950;6.920;2023-03-23T09:29:24;18.20;99.90
3602;DHT22;1815;50.950;6.920;2023-03-23T09:31:50;18.30;99.90
3602;DHT22;1815;50.950;6.920;2023-03-23T09:34:16;18.40;99.90
3602;DHT22;1815;50.950;6.920;2023-03-23T09:36:45;18.50;99.90
3602;DHT22;1815;50.950;6.920;2023-03-23T09:39:11;18.70;99.90
3602;DHT22;1815;50.950;6.920;2023-03-23T09:42:18;18.80;99.90
3602;DHT22;1815;50.950;6.920;2023-03-23T09:48:24;19.00;99.90
3602;DHT22;1815;50.950;6.920;2023-03-23T09:50:58;19.10;99.90
3602;DHT22;1815;50.950;6.920;2023-03-23T09:53:37;19.20;99.90
3602;DHT22;1815;50.950;6.920;2023-03-23T09:56:11;19.20;99.90
3602;DHT22;1815;50.950;6.920;2023-03-23T10:01:36;19.20;99.90
3602;DHT22;1815;50.950;6.920;2023-03-23T10:04:10;19.10;99.90
3602;DHT22;1815;50.950;6.920;2023-03-23T10:06:37;19.00;99.90
3602;DHT22;1815;50.950;6.920;2023-03-23T10:09:05;19.00;99.90
3602;DHT22;1815;50.950;6.920;2023-03-23T10:11:53;19.00;99.90
3602;DHT22;1815;50.950;6.920;2023-03-23T10:14:41;19.00;99.90
3602;DHT22;1815;50.950;6.920;2023-03-23T10:17:19;19.00;99.90
3602;DHT22;1815;50.950;6.920;2023-03-23T10:19:55;19.10;99.90
3602;DHT22;1815;50.950;6.920;2023-03-23T10:22:54;19.30;99.90
3602;DHT22;1815;50.950;6.920;2023-03-23T10:25:24;19.50;99.90
3602;DHT22;1815;50.950;6.920;2023-03-23T10:30:49;19.80;99.90
3602;DHT22;1815;50.950;6.920;2023-03-23T10:33:34;19.80;99.90
3602;DHT22;1815;50.950;6.920;2023-03-23T10:36:12;19.70;99.90
3602;DHT22;1815;50.950;6.920;2023-03-23T10:38:50;19.60;99.90
3602;DHT22;1815;50.950;6.920;2023-03-23T10:41:19;19.50;99.90
3602;DHT22;1815;50.950;6.920;2023-03-23T10:43:46;19.30;99.90
3602;DHT22;1815;50.950;6.920;2023-03-23T10:46:37;19.10;99.90
3602;DHT22;1815;50.950;6.920;2023-03-23T10:49:11;19.00;99.90
3602;DHT22;1815;50.950;6.920;2023-03-23T10:51:41;18.80;99.90
3602;DHT22;1815;50.950;6.920;2023-03-23T10:54:07;18.70;99.90
3602;DHT22;1815;50.950;6.920;2023-03-23T10:56:43;18.60;99.90
3602;DHT22;1815;50.950;6.920;2023-03-23T10:59:31;18.50;99.90
3602;DHT22;1815;50.950;6.920;2023-03-23T11:02:02;18.40;99.90
3602;DHT22;1815;50.950;6.920;2023-03-23T11:04:30;18.40;99.90
3602;DHT22;1815;50.950;6.920;2023-03-23T11:07:01;18.30;99.90
3602;DHT22;1815;50.950;6.920;2023-03-23T11:09:40;18.30;99.90
3602;DHT22;1815;50.950;6.920;2023-03-23T11:12:18;18.30;99.90
3602;DHT22;1815;50.950;6.920;2023-03-23T11:14:44;18.30;99.90
3602;DHT22;1815;50.950;6.920;2023-03-23T11:17:39;18.30;99.90
3602;DHT22;1815;50.950;6.920;2023-03-23T11:20:12;18.30;99.90
3602;DHT22;1815;50.950;6.920;2023-03-23T11:22:38;18.40;99.90
3602;DHT22;1815;50.950;6.920;2023-03-23T11:25:05;18.50;99.90
3602;DHT22;1815;50.950;6.920;2023-03-23T11:27:32;18.50;99.90
3602;DHT22;1815;50.950;6.920;2023-03-23T11:30:11;18.60;99.90
3602;DHT22;1815;50.950;6.920;2023-03-23T11:32:45;18.60;99.90
3602;DHT22;1815;50.950;6.920;2023-03-23T11:35:18;18.60;99.90
3602;DHT22;1815;50.950;6.920;2023-03-23T11:37:51;18.60;99.90
3602;DHT22;1815;50.950;6.920;2023-03-23T11:40:24;18.60;99.90
3602;DHT22;1815;50.950;6.920;2023-03-23T11:43:01;18.60;99.90
3602;DHT22;1815;50.950;6.920;2023-03-23T11:45:39;18.60;99.90
3602;DHT22;1815;50.950;6.920;2023-03-23T11:48:27;18.60;99.90
3602;DHT22;1815;50.950;6.920;2023-03-23T11:53:58;18.40;99.90
3602;DHT22;1815;50.950;6.920;2023-03-23T11:56:39;18.30;99.90
3602;DHT22;1815;50.950;6.920;2023-03-23T11:59:15;18.10;99.90
3602;DHT22;1815;50.950;6.920;2023-03-23T12:07:46;17.60;99.90
3602;DHT22;1815;50.950;6.920;2023-03-23T12:12:55;17.60;99.90
3602;DHT22;1815;50.950;6.920;2023-03-23T12:15:34;17.70;99.90
3602;DHT22;1815;50.950;6.920;2023-03-23T12:18:32;17.80;99.90
3602;DHT22;1815;50.950;6.920;2023-03-23T12:24:04;18.00;99.90
3602;DHT22;1815;50.950;6.920;2023-03-23T12:30:10;18.60;99.90
3602;DHT22;1815;50.950;6.920;2023-03-23T12:32:51;19.20;99.90
3602;DHT22;1815;50.950;6.920;2023-03-23T12:38:02;20.20;99.90
3602;DHT22;1815;50.950;6.920;2023-03-23T12:40:50;20.60;99.90
3602;DHT22;1815;50.950;6.920;2023-03-23T12:44:07;20.80;99.90
3602;DHT22;1815;50.950;6.920;2023-03-23T12:46:29;20.80;99.90
3602;DHT22;1815;50.950;6.920;2023-03-23T12:49:27;20.80;99.90
3602;DHT22;1815;50.950;6.920;2023-03-23T12:54:47;20.60;99.90
3602;DHT22;1815;50.950;6.920;2023-03-23T12:57:25;20.40;99.90
3602;DHT22;1815;50.950;6.920;2023-03-23T13:02:56;20.10;99.90
3602;DHT22;1815;50.950;6.920;2023-03-23T13:07:56;20.00;99.90
3602;DHT22;1815;50.950;6.920;2023-03-23T13:10:38;20.00;99.90
3602;DHT22;1815;50.950;6.920;2023-03-23T13:14:13;20.00;99.90
3602;DHT22;1815;50.950;6.920;2023-03-23T13:16:10;20.10;99.90
3602;DHT22;1815;50.950;6.920;2023-03-23T13:18:56;20.10;99.90
3602;DHT22;1815;50.950;6.920;2023-03-23T13:21:30;20.10;99.90
3602;DHT22;1815;50.950;6.920;2023-03-23T13:24:06;20.00;99.90
3602;DHT22;1815;50.950;6.920;2023-03-23T13:26:39;20.00;99.90
3602;DHT22;1815;50.950;6.920;2023-03-23T13:29:13;19.90;99.90
3602;DHT22;1815;50.950;6.920;2023-03-23T13:31:41;19.80;99.90
3602;DHT22;1815;50.950;6.920;2023-03-23T13:34:23;19.80;99.90
3602;DHT22;1815;50.950;6.920;2023-03-23T13:39:34;19.70;99.90
3602;DHT22;1815;50.950;6.920;2023-03-23T13:42:19;19.60;99.90
3602;DHT22;1815;50.950;6.920;2023-03-23T13:50:24;19.00;99.90
3602;DHT22;1815;50.950;6.920;2023-03-23T13:52:58;18.90;99.90
3602;DHT22;1815;50.950;6.920;2023-03-23T13:57:56;18.80;99.90
3602;DHT22;1815;50.950;6.920;2023-03-23T14:00:35;18.90;99.90
3602;DHT22;1815;50.950;6.920;2023-03-23T14:05:51;19.20;99.90
3602;DHT22;1815;50.950;6.920;2023-03-23T14:11:00;19.50;99.90
3602;DHT22;1815;50.950;6.920;2023-03-23T14:13:38;19.70;99.90
3602;DHT22;1815;50.950;6.920;2023-03-23T14:16:20;19.80;99.90
3602;DHT22;1815;50.950;6.920;2023-03-23T14:18:55;20.00;99.90
3602;DHT22;1815;50.950;6.920;2023-03-23T14:21:37;20.10;99.90
3602;DHT22;1815;50.950;6.920;2023-03-23T14:24:32;20.10;99.90
3602;DHT22;1815;50.950;6.920;2023-03-23T14:27:14;20.10;99.90
3602;DHT22;1815;50.950;6.920;2023-03-23T14:29:40;20.00;99.90
3602;DHT22;1815;50.950;6.920;2023-03-23T14:32:18;20.00;99.90
3602;DHT22;1815;50.950;6.920;2023-03-23T14:34:50;19.90;99.90
3602;DHT22;1815;50.950;6.920;2023-03-23T14:37:16;19.80;99.90
3602;DHT22;1815;50.950;6.920;2023-03-23T14:39:54;19.70;99.90
3602;DHT22;1815;50.950;6.920;2023-03-23T14:42:30;19.50;99.90
3602;DHT22;1815;50.950;6.920;2023-03-23T14:44:57;19.40;99.90
3602;DHT22;1815;50.950;6.920;2023-03-23T14:47:30;19.30;99.90
3602;DHT22;1815;50.950;6.920;2023-03-23T14:49:58;19.10;99.90
3602;DHT22;1815;50.950;6.920;2023-03-23T14:52:32;19.00;99.90
3602;DHT22;1815;50.950;6.920;2023-03-23T14:55:20;18.80;99.90
3602;DHT22;1815;50.950;6.920;2023-03-23T14:57:47;18.60;99.90
3602;DHT22;1815;50.950;6.920;2023-03-23T15:00:19;18.50;99.90
3602;DHT22;1815;50.950;6.920;2023-03-23T15:02:49;18.40;99.90
3602;DHT22;1815;50.950;6.920;2023-03-23T15:05:38;18.30;99.90
3602;DHT22;1815;50.950;6.920;2023-03-23T15:08:12;18.20;99.90
3602;DHT22;1815;50.950;6.920;2023-03-23T15:10:39;18.20;99.90
3602;DHT22;1815;50.950;6.920;2023-03-23T15:13:05;18.20;99.90
3602;DHT22;1815;50.950;6.920;2023-03-23T15:18:37;18.30;99.90
3602;DHT22;1815;50.950;6.920;2023-03-23T15:21:33;18.50;99.90
3602;DHT22;1815;50.950;6.920;2023-03-23T15:23:57;18.60;99.90
3602;DHT22;1815;50.950;6.920;2023-03-23T15:26:30;18.70;99.90
3602;DHT22;1815;50.950;6.920;2023-03-23T15:31:33;18.90;99.90
3602;DHT22;1815;50.950;6.920;2023-03-23T15:34:01;19.00;99.90
3602;DHT22;1815;50.950;6.920;2023-03-23T15:36:32;19.10;99.90
3602;DHT22;1815;50.950;6.920;2023-03-23T15:38:58;19.20;99.90
3602;DHT22;1815;50.950;6.920;2023-03-23T15:41:30;19.20;99.90
3602;DHT22;1815;50.950;6.920;2023-03-23T15:44:09;19.30;99.90
3602;DHT22;1815;50.950;6.920;2023-03-23T15:46:35;19.30;99.90
3602;DHT22;1815;50.950;6.920;2023-03-23T15:51:29;19.30;99.90
3602;DHT22;1815;50.950;6.920;2023-03-23T15:53:56;19.30;99.90
3602;DHT22;1815;50.950;6.920;2023-03-23T15:56:23;19.30;99.90
3602;DHT22;1815;50.950;6.920;2023-03-23T15:58:49;19.30;99.90
3602;DHT22;1815;50.950;6.920;2023-03-23T16:01:18;19.30;99.90
3602;DHT22;1815;50.950;6.920;2023-03-23T16:03:51;19.40;99.90
3602;DHT22;1815;50.950;6.920;2023-03-23T16:06:19;19.40;99.90
3602;DHT22;1815;50.950;6.920;2023-03-23T16:08:44;19.30;99.90
3602;DHT22;1815;50.950;6.920;2023-03-23T16:11:12;19.30;99.90
3602;DHT22;1815;50.950;6.920;2023-03-23T16:13:38;19.20;99.90
3602;DHT22;1815;50.950;6.920;2023-03-23T16:16:05;19.10;99.90
3602;DHT22;1815;50.950;6.920;2023-03-23T16:18:33;19.00;99.90
3602;DHT22;1815;50.950;6.920;2023-03-23T16:20:59;19.00;99.90
3602;DHT22;1815;50.950;6.920;2023-03-23T16:23:26;18.90;99.90
3602;DHT22;1815;50.950;6.920;2023-03-23T16:25:52;18.80;99.90
3602;DHT22;1815;50.950;6.920;2023-03-23T16:28:18;18.80;99.90
3602;DHT22;1815;50.950;6.920;2023-03-23T16:30:46;18.80;99.90
3602;DHT22;1815;50.950;6.920;2023-03-23T16:33:12;18.70;99.90
3602;DHT22;1815;50.950;6.920;2023-03-23T16:35:38;18.70;99.90
3602;DHT22;1815;50.950;6.920;2023-03-23T16:38:04;18.60;99.90
3602;DHT22;1815;50.950;6.920;2023-03-23T16:40:45;18.60;99.90
3602;DHT22;1815;50.950;6.920;2023-03-23T16:43:11;18.50;99.90
3602;DHT22;1815;50.950;6.920;2023-03-23T16:45:40;18.50;99.90
3602;DHT22;1815;50.950;6.920;2023-03-23T16:48:06;18.40;99.90
3602;DHT22;1815;50.950;6.920;2023-03-23T16:50:33;18.40;99.90
3602;DHT22;1815;50.950;6.920;2023-03-23T16:52:59;18.30;99.90
3602;DHT22;1815;50.950;6.920;2023-03-23T16:55:25;18.30;99.90
3602;DHT22;1815;50.950;6.920;2023-03-23T16:57:52;18.20;99.90
3602;DHT22;1815;50.950;6.920;2023-03-23T17:00:19;18.20;99.90
3602;DHT22;1815;50.950;6.920;2023-03-23T17:02:47;18.10;99.90
3602;DHT22;1815;50.950;6.920;2023-03-23T17:05:13;18.10;99.90
3602;DHT22;1815;50.950;6.920;2023-03-23T17:07:41;18.10;99.90
3602;DHT22;1815;50.950;6.920;2023-03-23T17:10:08;18.10;99.90
3602;DHT22;1815;50.950;6.920;2023-03-23T17:12:34;18.00;99.90
3602;DHT22;1815;50.950;6.920;2023-03-23T17:15:01;17.90;99.90
3602;DHT22;1815;50.950;6.920;2023-03-23T17:17:27;17.90;99.90
3602;DHT22;1815;50.950;6.920;2023-03-23T17:19:54;17.80;99.90
3602;DHT22;1815;50.950;6.920;2023-03-23T17:22:21;17.70;99.90
3602;DHT22;1815;50.950;6.920;2023-03-23T17:24:46;17.60;99.90
3602;DHT22;1815;50.950;6.920;2023-03-23T17:27:17;17.60;99.90
3602;DHT22;1815;50.950;6.920;2023-03-23T17:29:44;17.50;99.90
3602;DHT22;1815;50.950;6.920;2023-03-23T17:32:10;17.40;99.90
3602;DHT22;1815;50.950;6.920;2023-03-23T17:34:36;17.40;99.90
3602;DHT22;1815;50.950;6.920;2023-03-23T17:37:03;17.30;99.90
3602;DHT22;1815;50.950;6.920;2023-03-23T17:39:29;17.20;99.90
3602;DHT22;1815;50.950;6.920;2023-03-23T17:41:57;17.10;99.90
3602;DHT22;1815;50.950;6.920;2023-03-23T17:44:23;17.10;99.90
3602;DHT22;1815;50.950;6.920;2023-03-23T17:46:49;17.00;99.90
3602;DHT22;1815;50.950;6.920;2023-03-23T17:49:15;16.90;99.90
3602;DHT22;1815;50.950;6.920;2023-03-23T17:51:41;16.80;99.90
3602;DHT22;1815;50.950;6.920;2023-03-23T17:54:07;16.80;99.90
3602;DHT22;1815;50.950;6.920;2023-03-23T17:56:33;16.70;99.90